Time;durP1;ratioP1;P1;durP2;ratioP2;P2;SDS_P1;SDS_P2;PMS_P1;PMS_P2;Temp;Humidity;BMP_temperature;BMP_pressure;BME280_temperature;BME280_humidity;BME280_pressure;Samples;Min_cycle;Max_cycle;Signal;HPM_P1;HPM_P2
2021/07/05 00:00:08;;;;;;;1.00;1.00;;;18.40;99.90;;;;;;5115006;27;20216;-72
2021/07/05 00:02:35;;;;;;;1.20;1.20;;;18.40;99.90;;;;;;5110024;27;20227;-72
2021/07/05 00:05:02;;;;;;;1.25;1.10;;;18.40;99.90;;;;;;5113544;27;20766;-72
2021/07/05 00:07:30;;;;;;;1.13;1.13;;;18.40;99.90;;;;;;5113342;27;20315;-72
2021/07/05 00:09:57;;;;;;;1.17;1.17;;;18.30;99.90;;;;;;5116942;27;20228;-72
2021/07/05 00:12:25;;;;;;;1.00;1.00;;;18.30;99.90;;;;;;5113714;27;20224;-72
2021/07/05 00:14:52;;;;;;;1.13;1.13;;;18.30;99.90;;;;;;5129081;27;20225;-72
2021/07/05 00:17:19;;;;;;;1.10;1.10;;;18.20;99.90;;;;;;5133894;27;20219;-72
2021/07/05 00:19:46;;;;;;;1.10;1.10;;;18.20;99.90;;;;;;5115558;27;20213;-72
2021/07/05 00:22:13;;;;;;;1.10;1.10;;;18.20;99.90;;;;;;5116844;27;20212;-72
2021/07/05 00:24:41;;;;;;;1.02;1.02;;;18.20;99.90;;;;;;5111079;27;20216;-72
2021/07/05 00:27:09;;;;;;;1.70;1.10;;;18.20;99.90;;;;;;5108024;27;20220;-72
2021/07/05 00:29:36;;;;;;;1.17;1.17;;;18.10;99.90;;;;;;5111151;27;20217;-72
2021/07/05 00:32:03;;;;;;;1.20;1.20;;;18.10;99.90;;;;;;5116748;27;20247;-72
2021/07/05 00:34:30;;;;;;;1.05;1.00;;;18.10;99.90;;;;;;5110444;27;20224;-72
2021/07/05 00:36:57;;;;;;;1.63;1.45;;;18.10;99.90;;;;;;5111076;27;20217;-72
2021/07/05 00:39:24;;;;;;;1.30;1.30;;;18.00;99.90;;;;;;5116195;27;20227;-72
2021/07/05 00:41:53;;;;;;;1.40;1.30;;;18.00;99.90;;;;;;5110203;27;20221;-72
2021/07/05 00:44:20;;;;;;;1.52;1.40;;;18.00;99.90;;;;;;5113722;27;20219;-72
2021/07/05 00:46:47;;;;;;;2.95;1.13;;;18.00;99.90;;;;;;5108479;27;20227;-73
2021/07/05 00:49:14;;;;;;;1.20;1.13;;;17.70;99.90;;;;;;5116651;27;20223;-73
2021/07/05 00:54:11;;;;;;;1.00;1.00;;;17.60;99.90;;;;;;5047400;28;20639;-75
2021/07/05 00:56:38;;;;;;;1.00;1.00;;;17.70;99.90;;;;;;5038064;28;20226;-74
2021/07/05 00:59:07;;;;;;;1.10;1.10;;;17.80;99.90;;;;;;5029260;28;20249;-75
2021/07/05 01:01:36;;;;;;;1.40;1.30;;;17.90;99.90;;;;;;5030976;28;20238;-73
2021/07/05 01:04:03;;;;;;;1.33;1.20;;;18.00;99.90;;;;;;5049405;28;20326;-74
2021/07/05 01:06:30;;;;;;;1.00;1.00;;;18.00;99.90;;;;;;5049805;28;20226;-74
2021/07/05 01:08:58;;;;;;;1.10;1.10;;;18.00;99.90;;;;;;5049161;28;20735;-75
2021/07/05 01:14:09;;;;;;;1.20;1.10;;;18.10;99.90;;;;;;5093165;27;20570;-74
2021/07/05 01:16:36;;;;;;;1.20;1.10;;;18.10;99.90;;;;;;5087043;28;20228;-75
2021/07/05 01:19:03;;;;;;;1.20;1.20;;;18.10;99.90;;;;;;5088602;28;20229;-74
2021/07/05 01:24:03;;;;;;;1.10;1.10;;;18.10;99.90;;;;;;5046471;28;20230;-74
2021/07/05 01:26:31;;;;;;;1.25;1.23;;;18.10;99.90;;;;;;5047427;28;20218;-75
2021/07/05 01:28:58;;;;;;;1.05;1.02;;;18.00;99.90;;;;;;5047174;28;20234;-74
2021/07/05 01:31:25;;;;;;;1.20;1.10;;;18.00;99.90;;;;;;5049307;28;20259;-74
2021/07/05 01:33:52;;;;;;;1.00;1.00;;;18.10;99.90;;;;;;5067770;28;20226;-75
2021/07/05 01:36:19;;;;;;;1.30;1.20;;;18.00;99.90;;;;;;5054776;28;20223;-74
2021/07/05 01:38:49;;;;;;;1.55;1.45;;;17.90;99.90;;;;;;5047917;28;20230;-76
2021/07/05 01:41:21;;;;;;;1.08;1.08;;;17.80;99.90;;;;;;5066599;28;20234;-75
2021/07/05 01:43:49;;;;;;;1.48;1.33;;;17.70;99.90;;;;;;5067491;28;20226;-75
2021/07/05 01:46:17;;;;;;;1.35;1.25;;;17.70;99.90;;;;;;5068042;28;20376;-75
2021/07/05 01:48:46;;;;;;;2.53;1.02;;;17.70;99.90;;;;;;5079219;28;20221;-75
2021/07/05 01:51:13;;;;;;;1.00;1.00;;;17.70;99.90;;;;;;5085249;28;20236;-74
2021/07/05 01:56:09;;;;;;;1.60;1.23;;;17.80;99.90;;;;;;5113540;27;20270;-74
2021/07/05 01:58:39;;;;;;;1.35;1.25;;;17.80;99.90;;;;;;5107750;28;20231;-75
2021/07/05 02:01:07;;;;;;;1.40;1.30;;;17.80;99.90;;;;;;5100699;27;20225;-76
2021/07/05 02:03:34;;;;;;;1.50;1.40;;;17.80;99.90;;;;;;5100028;28;20251;-76
2021/07/05 02:06:01;;;;;;;1.40;1.30;;;17.90;99.90;;;;;;5100745;27;20213;-76
2021/07/05 02:08:28;;;;;;;1.10;1.10;;;17.90;99.90;;;;;;5099355;28;20228;-76
2021/07/05 02:10:55;;;;;;;1.33;1.33;;;17.80;99.90;;;;;;5098932;27;20232;-75
2021/07/05 02:13:26;;;;;;;1.23;1.23;;;17.80;99.90;;;;;;5094013;27;20221;-76
2021/07/05 02:15:58;;;;;;;1.05;1.05;;;17.70;99.90;;;;;;5101854;28;20263;-77
2021/07/05 02:18:25;;;;;;;1.08;1.08;;;17.60;99.90;;;;;;5100556;28;20228;-76
2021/07/05 02:20:53;;;;;;;1.10;1.10;;;17.60;99.90;;;;;;5100602;27;20221;-77
2021/07/05 02:23:21;;;;;;;1.23;1.20;;;17.60;99.90;;;;;;5098658;27;20225;-77
2021/07/05 02:25:50;;;;;;;1.08;1.08;;;17.60;99.90;;;;;;5086314;28;20225;-76
2021/07/05 02:28:19;;;;;;;2.15;2.00;;;17.60;99.90;;;;;;5085860;28;20240;-76
2021/07/05 02:30:48;;;;;;;1.20;1.20;;;17.60;99.90;;;;;;5086813;28;20401;-77
2021/07/05 02:33:18;;;;;;;1.10;1.10;;;17.70;99.90;;;;;;5088716;28;20222;-76
2021/07/05 02:35:45;;;;;;;1.23;1.20;;;17.70;99.90;;;;;;5082671;28;20220;-76
2021/07/05 02:38:14;;;;;;;0.95;0.95;;;17.80;99.90;;;;;;5088165;28;20221;-77
2021/07/05 02:40:43;;;;;;;0.82;0.82;;;17.80;99.90;;;;;;5085392;28;20222;-76
2021/07/05 02:43:11;;;;;;;0.90;0.90;;;17.70;99.90;;;;;;5086141;28;20221;-77
2021/07/05 02:45:41;;;;;;;0.95;0.95;;;17.60;99.90;;;;;;5086766;28;20240;-76
2021/07/05 02:48:10;;;;;;;0.90;0.90;;;17.50;99.90;;;;;;5082227;28;20214;-77
2021/07/05 02:50:39;;;;;;;1.20;1.10;;;17.50;99.90;;;;;;5083061;28;20221;-76
2021/07/05 02:53:08;;;;;;;1.10;1.10;;;17.40;99.90;;;;;;5085957;28;20229;-76
2021/07/05 02:55:35;;;;;;;1.00;1.00;;;17.30;99.90;;;;;;5086705;28;20222;-77
2021/07/05 02:58:02;;;;;;;1.17;1.17;;;17.30;99.90;;;;;;5084644;28;20233;-77
2021/07/05 03:00:31;;;;;;;1.58;1.20;;;17.30;99.90;;;;;;5085811;28;20718;-77
2021/07/05 03:02:59;;;;;;;1.10;1.00;;;17.30;99.90;;;;;;5086557;28;20225;-77
2021/07/05 03:05:28;;;;;;;1.45;1.30;;;17.30;99.90;;;;;;5085384;28;20225;-76
2021/07/05 03:07:57;;;;;;;1.10;1.10;;;17.40;99.90;;;;;;5086831;28;20217;-76
2021/07/05 03:10:26;;;;;;;1.10;1.10;;;17.40;99.90;;;;;;5085754;28;20375;-77
2021/07/05 03:12:54;;;;;;;1.00;1.00;;;17.40;99.90;;;;;;5084022;28;20467;-77
2021/07/05 03:15:21;;;;;;;1.15;1.05;;;17.40;99.90;;;;;;5085623;28;20732;-76
2021/07/05 03:17:49;;;;;;;1.15;1.13;;;17.40;99.90;;;;;;5086587;28;20537;-77
2021/07/05 03:20:18;;;;;;;1.30;1.20;;;17.20;99.90;;;;;;5080541;28;20222;-76
2021/07/05 03:22:47;;;;;;;1.00;1.00;;;17.20;99.90;;;;;;5089409;28;20210;-76
2021/07/05 03:25:18;;;;;;;0.90;0.90;;;17.10;99.90;;;;;;5086639;28;20240;-77
2021/07/05 03:27:46;;;;;;;2.03;1.20;;;17.20;99.90;;;;;;5083842;28;20221;-80
2021/07/05 03:30:15;;;;;;;1.20;1.13;;;17.10;99.90;;;;;;5086546;28;20244;-76
2021/07/05 03:32:42;;;;;;;1.17;1.10;;;17.20;99.90;;;;;;5084198;28;20225;-76
2021/07/05 03:35:13;;;;;;;0.98;0.98;;;17.10;99.90;;;;;;5083346;28;20218;-76
2021/07/05 03:37:41;;;;;;;1.00;1.00;;;17.10;99.90;;;;;;5084497;28;20233;-76
2021/07/05 03:40:10;;;;;;;0.98;0.98;;;17.10;99.90;;;;;;5082386;28;20213;-79
2021/07/05 03:42:39;;;;;;;1.17;1.13;;;17.00;99.90;;;;;;5082563;28;20282;-76
2021/07/05 03:45:08;;;;;;;1.08;1.08;;;16.90;99.90;;;;;;5082778;28;20217;-77
2021/07/05 03:47:35;;;;;;;1.77;1.00;;;17.00;99.90;;;;;;5079625;28;20225;-78
2021/07/05 03:50:03;;;;;;;1.20;1.10;;;17.00;99.90;;;;;;5085264;28;20225;-76
2021/07/05 03:52:30;;;;;;;1.08;1.08;;;17.10;99.90;;;;;;5086074;28;20221;-76
2021/07/05 03:54:57;;;;;;;1.00;1.00;;;17.10;99.90;;;;;;5088816;28;20232;-76
2021/07/05 03:57:26;;;;;;;1.00;1.00;;;17.10;99.90;;;;;;5085839;28;20244;-77
2021/07/05 03:59:57;;;;;;;1.25;0.82;;;17.10;99.90;;;;;;5083524;28;20270;-76
2021/07/05 04:02:29;;;;;;;1.48;0.80;;;17.10;99.90;;;;;;5083578;28;20848;-75
2021/07/05 04:04:56;;;;;;;1.00;1.00;;;17.10;99.90;;;;;;5085738;28;20225;-78
2021/07/05 04:07:24;;;;;;;0.93;0.93;;;17.10;99.90;;;;;;5084285;28;20217;-75
2021/07/05 04:09:51;;;;;;;0.90;0.90;;;17.10;99.90;;;;;;5085531;28;20225;-76
2021/07/05 04:12:20;;;;;;;0.88;0.88;;;17.10;99.90;;;;;;5085488;28;20313;-75
2021/07/05 04:14:48;;;;;;;1.00;1.00;;;17.20;99.90;;;;;;5085329;28;20251;-77
2021/07/05 04:17:16;;;;;;;0.93;0.93;;;17.30;99.90;;;;;;5083454;28;20354;-76
2021/07/05 04:19:45;;;;;;;0.80;0.80;;;17.40;99.90;;;;;;5085906;28;20313;-76
2021/07/05 04:22:13;;;;;;;2.20;0.80;;;17.50;99.90;;;;;;5085742;28;20285;-75
2021/07/05 04:24:41;;;;;;;0.88;0.88;;;17.60;99.90;;;;;;5083115;28;20240;-76
2021/07/05 04:27:08;;;;;;;0.90;0.90;;;17.70;99.90;;;;;;5083559;28;20228;-76
2021/07/05 04:29:35;;;;;;;0.88;0.88;;;17.80;99.90;;;;;;5081133;28;20217;-78
2021/07/05 04:32:03;;;;;;;1.58;1.00;;;17.90;99.90;;;;;;5081871;28;20237;-76
2021/07/05 04:34:31;;;;;;;0.93;0.93;;;18.00;99.90;;;;;;5085935;28;20718;-76
2021/07/05 04:36:58;;;;;;;1.15;0.98;;;18.10;99.90;;;;;;5084539;28;20236;-76
2021/07/05 04:39:26;;;;;;;0.85;0.85;;;18.10;99.90;;;;;;5084527;28;20224;-75
2021/07/05 04:41:53;;;;;;;1.00;1.00;;;18.10;99.90;;;;;;5082096;28;20225;-76
2021/07/05 04:44:21;;;;;;;0.90;0.90;;;17.90;99.90;;;;;;5079546;28;20719;-77
2021/07/05 04:46:49;;;;;;;0.98;0.98;;;17.70;99.90;;;;;;5083345;28;20229;-76
2021/07/05 04:49:17;;;;;;;1.10;1.00;;;17.60;99.90;;;;;;5080553;28;20225;-76
2021/07/05 04:51:46;;;;;;;0.80;0.80;;;17.60;99.90;;;;;;5081950;28;20245;-78
2021/07/05 04:54:13;;;;;;;0.82;0.82;;;17.60;99.90;;;;;;5079483;28;22161;-76
2021/07/05 04:56:41;;;;;;;4.00;1.13;;;17.70;99.90;;;;;;5082751;28;20731;-76
2021/07/05 04:59:08;;;;;;;1.08;1.00;;;17.90;99.90;;;;;;5082080;28;20711;-76
2021/07/05 05:01:36;;;;;;;1.70;1.15;;;18.20;99.90;;;;;;5081519;28;20229;-77
2021/07/05 05:04:03;;;;;;;1.58;1.27;;;18.30;99.90;;;;;;5084637;28;20236;-77
2021/07/05 05:06:31;;;;;;;1.10;1.10;;;18.30;99.90;;;;;;5084134;28;20228;-75
2021/07/05 05:08:59;;;;;;;1.05;1.05;;;18.20;99.90;;;;;;5082032;28;20221;-77
2021/07/05 05:11:26;;;;;;;1.15;0.90;;;18.10;99.90;;;;;;5082405;28;21013;-78
2021/07/05 05:13:53;;;;;;;1.17;1.00;;;18.00;99.90;;;;;;5078218;28;20231;-77
2021/07/05 05:16:20;;;;;;;1.15;0.90;;;18.00;99.90;;;;;;5082453;28;20252;-79
2021/07/05 05:18:47;;;;;;;1.02;0.90;;;17.90;99.90;;;;;;5075273;28;20225;-79
2021/07/05 05:21:14;;;;;;;1.25;1.10;;;17.90;99.90;;;;;;5075666;28;20628;-77
2021/07/05 05:23:42;;;;;;;1.20;1.10;;;17.80;99.90;;;;;;5074009;28;20899;-77
2021/07/05 05:26:10;;;;;;;0.95;0.90;;;17.90;99.90;;;;;;5073453;28;20212;-75
2021/07/05 05:28:37;;;;;;;1.23;1.00;;;17.90;99.90;;;;;;5074006;28;20222;-77
2021/07/05 05:31:04;;;;;;;2.67;1.00;;;17.90;99.90;;;;;;5072573;28;20732;-77
2021/07/05 05:33:32;;;;;;;1.10;1.10;;;17.80;99.90;;;;;;5072969;28;20232;-77
2021/07/05 05:35:59;;;;;;;1.20;1.00;;;17.90;99.90;;;;;;5070811;28;20484;-76
2021/07/05 05:38:26;;;;;;;1.85;1.15;;;17.90;99.90;;;;;;5075908;28;20536;-77
2021/07/05 05:40:53;;;;;;;0.90;0.90;;;17.90;99.90;;;;;;5073922;28;20522;-78
2021/07/05 05:43:22;;;;;;;1.35;1.10;;;17.90;99.90;;;;;;5072661;28;20221;-77
2021/07/05 05:45:49;;;;;;;2.47;1.23;;;18.00;99.90;;;;;;5073781;28;20221;-75
2021/07/05 05:48:16;;;;;;;1.27;0.90;;;18.10;99.90;;;;;;5075693;28;20224;-76
2021/07/05 05:50:43;;;;;;;1.15;1.10;;;18.20;99.90;;;;;;5076055;28;20221;-75
2021/07/05 05:53:10;;;;;;;1.17;1.15;;;18.30;99.90;;;;;;5072427;28;20224;-75
2021/07/05 05:55:41;;;;;;;2.92;1.00;;;18.30;99.90;;;;;;5075009;28;20224;-77
2021/07/05 05:58:08;;;;;;;1.60;0.82;;;18.30;99.90;;;;;;5081124;28;20209;-77
2021/07/05 06:00:37;;;;;;;1.38;1.10;;;18.30;99.90;;;;;;5080928;28;20282;-77
2021/07/05 06:03:04;;;;;;;1.77;1.10;;;18.40;99.90;;;;;;5075338;28;20253;-76
2021/07/05 06:05:31;;;;;;;1.00;0.98;;;18.60;99.90;;;;;;5078972;28;20217;-75
2021/07/05 06:07:58;;;;;;;0.90;0.90;;;18.60;99.90;;;;;;5074538;28;20225;-76
2021/07/05 06:10:26;;;;;;;1.35;1.00;;;18.60;99.90;;;;;;5076878;28;20224;-75
2021/07/05 06:12:55;;;;;;;1.05;0.98;;;18.70;99.90;;;;;;5073242;28;20228;-75
2021/07/05 06:15:23;;;;;;;0.80;0.80;;;18.90;99.90;;;;;;5075395;28;20233;-76
2021/07/05 06:17:53;;;;;;;1.70;0.90;;;19.00;99.90;;;;;;5074585;28;20225;-77
2021/07/05 06:20:20;;;;;;;1.15;1.05;;;19.00;99.90;;;;;;5071642;28;20229;-76
2021/07/05 06:22:50;;;;;;;0.95;0.95;;;19.00;99.90;;;;;;5078347;28;20520;-74
2021/07/05 06:25:17;;;;;;;0.80;0.80;;;19.10;99.90;;;;;;5075798;28;20239;-75
2021/07/05 06:27:45;;;;;;;0.80;0.80;;;19.00;99.90;;;;;;5076045;28;20770;-77
2021/07/05 06:30:13;;;;;;;0.90;0.90;;;18.80;99.90;;;;;;5076997;28;20224;-75
2021/07/05 06:32:41;;;;;;;1.00;0.90;;;18.60;99.90;;;;;;5079078;28;20237;-77
2021/07/05 06:35:12;;;;;;;1.27;1.17;;;18.70;99.90;;;;;;5073149;28;20252;-76
2021/07/05 06:37:39;;;;;;;1.02;0.80;;;18.90;99.90;;;;;;5076411;28;20209;-76
2021/07/05 06:40:08;;;;;;;2.28;0.85;;;19.10;99.90;;;;;;5074882;28;20221;-76
2021/07/05 06:42:36;;;;;;;1.05;1.02;;;19.30;99.90;;;;;;5076371;28;20233;-76
2021/07/05 06:45:03;;;;;;;3.10;1.10;;;19.50;99.90;;;;;;5076940;28;20394;-76
2021/07/05 06:47:31;;;;;;;1.13;0.80;;;19.60;99.90;;;;;;5075427;28;20736;-75
2021/07/05 06:49:58;;;;;;;0.90;0.90;;;19.50;99.90;;;;;;5095018;28;20244;-75
2021/07/05 06:52:27;;;;;;;0.93;0.93;;;19.50;99.90;;;;;;5092730;22;21011;-76
2021/07/05 06:54:55;;;;;;;2.28;1.00;;;19.60;99.90;;;;;;5099975;27;20722;-76
2021/07/05 06:57:30;;;;;;;1.00;1.00;;;19.70;99.90;;;;;;5092523;27;20725;-77
2021/07/05 06:59:58;;;;;;;0.90;0.90;;;19.70;99.90;;;;;;5098866;27;20220;-76
2021/07/05 07:02:26;;;;;;;1.27;0.93;;;19.90;99.90;;;;;;5093198;27;20228;-77
2021/07/05 07:04:53;;;;;;;2.35;1.10;;;19.80;99.90;;;;;;5093679;27;20252;-76
2021/07/05 07:07:21;;;;;;;0.80;0.80;;;19.90;99.90;;;;;;5092151;28;20259;-76
2021/07/05 07:09:49;;;;;;;1.23;0.95;;;20.00;99.90;;;;;;5098308;27;20235;-76
2021/07/05 07:12:16;;;;;;;1.00;0.90;;;20.20;99.90;;;;;;5095306;27;20227;-77
2021/07/05 07:14:44;;;;;;;1.35;1.10;;;20.60;99.90;;;;;;5095734;27;20232;-78
2021/07/05 07:17:18;;;;;;;2.85;1.13;;;20.70;99.90;;;;;;5094933;27;20239;-77
2021/07/05 07:19:45;;;;;;;0.95;0.75;;;20.90;99.90;;;;;;5101358;27;20870;-78
2021/07/05 07:22:12;;;;;;;1.05;0.73;;;20.90;99.90;;;;;;5098648;28;20223;-77
2021/07/05 07:24:39;;;;;;;0.82;0.82;;;20.70;99.90;;;;;;5096589;27;20216;-78
2021/07/05 07:27:11;;;;;;;0.88;0.88;;;20.60;99.90;;;;;;5099649;27;20224;-77
2021/07/05 07:29:38;;;;;;;1.15;0.93;;;20.70;99.90;;;;;;5092750;28;20225;-77
2021/07/05 07:32:05;;;;;;;0.88;0.82;;;20.70;99.90;;;;;;5096545;28;20229;-77
2021/07/05 07:34:33;;;;;;;0.98;0.80;;;20.80;99.90;;;;;;5095608;28;20228;-78
2021/07/05 07:37:02;;;;;;;0.80;0.80;;;20.90;99.90;;;;;;5095501;27;20224;-77
2021/07/05 07:39:33;;;;;;;3.10;0.80;;;20.90;99.90;;;;;;5094053;28;20303;-76
2021/07/05 07:42:01;;;;;;;1.05;0.90;;;20.90;99.90;;;;;;5095707;27;20265;-77
2021/07/05 07:44:30;;;;;;;1.10;0.80;;;20.90;99.90;;;;;;5095433;28;20343;-77
2021/07/05 07:46:57;;;;;;;2.30;0.82;;;21.00;99.90;;;;;;5094884;27;20228;-77
2021/07/05 07:49:25;;;;;;;1.10;0.82;;;21.00;99.90;;;;;;5093618;27;20216;-78
2021/07/05 07:51:52;;;;;;;1.42;0.88;;;20.90;99.90;;;;;;5097779;28;20300;-78
2021/07/05 07:54:20;;;;;;;1.63;1.00;;;20.90;99.90;;;;;;5096248;28;20304;-77
2021/07/05 07:56:47;;;;;;;1.20;0.90;;;21.00;99.90;;;;;;5093447;27;20353;-77
2021/07/05 07:59:14;;;;;;;1.35;1.08;;;21.10;99.90;;;;;;5095138;27;20232;-78
2021/07/05 08:01:43;;;;;;;1.05;0.90;;;21.30;99.90;;;;;;5097033;27;20345;-77
2021/07/05 08:04:10;;;;;;;0.70;0.70;;;21.30;99.90;;;;;;5092057;28;20217;-78
2021/07/05 08:06:38;;;;;;;1.77;0.90;;;21.60;99.90;;;;;;5094106;28;20243;-78
2021/07/05 08:09:06;;;;;;;1.10;0.95;;;21.80;99.90;;;;;;5095114;28;20221;-78
2021/07/05 08:11:33;;;;;;;2.65;0.80;;;21.90;99.90;;;;;;5091764;28;20224;-78
2021/07/05 08:14:01;;;;;;;0.80;0.80;;;22.00;99.90;;;;;;5098990;27;20240;-78
2021/07/05 08:16:28;;;;;;;1.10;0.90;;;22.00;99.90;;;;;;5099105;27;20224;-78
2021/07/05 08:18:57;;;;;;;1.00;1.00;;;22.20;99.90;;;;;;5097695;28;20702;-77
2021/07/05 08:21:25;;;;;;;1.20;0.88;;;22.40;99.90;;;;;;5097826;27;20220;-78
2021/07/05 08:23:52;;;;;;;0.90;0.90;;;22.70;99.90;;;;;;5096103;27;20224;-78
2021/07/05 08:26:19;;;;;;;0.90;0.90;;;23.00;99.90;;;;;;5100364;27;20243;-78
2021/07/05 08:28:47;;;;;;;3.28;0.60;;;23.40;99.90;;;;;;5095083;27;20220;-77
2021/07/05 08:31:15;;;;;;;0.85;0.85;;;23.70;99.90;;;;;;5094394;27;20216;-78
2021/07/05 08:33:42;;;;;;;2.72;0.90;;;23.90;99.90;;;;;;5096600;28;21279;-77
2021/07/05 08:36:10;;;;;;;1.00;0.90;;;24.00;99.90;;;;;;5094897;27;20228;-76
2021/07/05 08:38:37;;;;;;;0.80;0.80;;;24.00;99.90;;;;;;5093801;28;20604;-78
2021/07/05 08:41:05;;;;;;;0.98;0.90;;;24.10;99.90;;;;;;5097039;27;20227;-78
2021/07/05 08:43:32;;;;;;;0.70;0.70;;;23.80;99.90;;;;;;5091161;28;20221;-75
2021/07/05 08:46:01;;;;;;;6.40;0.90;;;23.70;99.90;;;;;;5095508;27;20244;-77
2021/07/05 08:48:32;;;;;;;3.80;0.98;;;23.80;99.90;;;;;;5094066;28;20235;-77
2021/07/05 08:51:01;;;;;;;0.77;0.77;;;23.90;99.90;;;;;;5095114;28;20235;-76
2021/07/05 08:53:29;;;;;;;0.73;0.73;;;23.80;99.90;;;;;;5094215;28;20836;-77
2021/07/05 08:55:57;;;;;;;0.88;0.88;;;23.90;99.90;;;;;;5094843;27;20236;-77
2021/07/05 08:58:24;;;;;;;0.90;0.80;;;24.00;99.90;;;;;;5096804;27;20247;-77
2021/07/05 09:00:51;;;;;;;1.52;0.93;;;23.90;99.90;;;;;;5096138;28;20223;-78
2021/07/05 09:03:23;;;;;;;0.80;0.80;;;23.90;99.90;;;;;;5093987;27;20225;-77
2021/07/05 09:06:12;;;;;;;0.85;0.80;;;23.80;99.90;;;;;;5094787;28;20662;-76
2021/07/05 09:08:42;;;;;;;2.75;0.80;;;23.80;99.90;;;;;;5094735;28;20215;-77
2021/07/05 09:11:10;;;;;;;0.70;0.70;;;24.00;99.90;;;;;;5095084;28;20595;-78
2021/07/05 09:13:53;;;;;;;0.85;0.85;;;24.20;99.90;;;;;;5097522;28;20570;-76
2021/07/05 09:16:32;;;;;;;1.58;0.90;;;24.50;99.90;;;;;;5094763;28;20255;-77
2021/07/05 09:19:01;;;;;;;0.95;0.77;;;24.40;99.90;;;;;;5099971;28;20236;-78
2021/07/05 09:21:29;;;;;;;3.28;0.90;;;24.50;99.90;;;;;;5094154;28;20708;-77
2021/07/05 09:24:03;;;;;;;3.92;0.80;;;24.50;99.90;;;;;;5090443;28;20236;-77
2021/07/05 09:26:33;;;;;;;1.05;0.95;;;24.50;99.90;;;;;;5066149;28;20661;-76
2021/07/05 09:29:01;;;;;;;1.95;0.80;;;24.50;99.90;;;;;;5094177;28;20221;-77
2021/07/05 09:31:41;;;;;;;1.50;0.63;;;24.40;99.90;;;;;;5094583;28;20246;-76
2021/07/05 09:34:17;;;;;;;1.10;1.00;;;24.50;99.90;;;;;;5095541;28;20464;-77
2021/07/05 09:36:44;;;;;;;1.05;0.73;;;24.70;99.90;;;;;;5099243;28;20216;-74
2021/07/05 09:39:16;;;;;;;0.90;0.90;;;24.70;99.90;;;;;;5099568;27;20212;-72
2021/07/05 09:41:44;;;;;;;5.50;1.10;;;24.80;99.90;;;;;;5094852;28;20224;-74
2021/07/05 09:44:13;;;;;;;1.00;0.90;;;24.80;99.90;;;;;;5094215;27;20698;-73
2021/07/05 09:46:48;;;;;;;0.85;0.80;;;25.10;99.90;;;;;;5099910;27;20212;-75
2021/07/05 09:49:19;;;;;;;1.15;1.10;;;25.10;99.90;;;;;;5096488;27;20211;-75
2021/07/05 09:51:48;;;;;;;0.80;0.80;;;25.00;99.90;;;;;;5094518;28;20224;-76
2021/07/05 09:54:26;;;;;;;0.70;0.70;;;25.00;99.90;;;;;;5096212;28;20306;-75
2021/07/05 09:56:54;;;;;;;0.70;0.70;;;25.20;99.90;;;;;;5097529;28;20586;-76
2021/07/05 09:59:24;;;;;;;0.77;0.77;;;25.40;99.90;;;;;;5099296;28;20320;-75
2021/07/05 10:01:52;;;;;;;0.70;0.70;;;25.70;99.90;;;;;;5100036;27;20223;-75
2021/07/05 10:04:27;;;;;;;0.80;0.80;;;25.80;99.90;;;;;;5094376;28;20706;-75
2021/07/05 10:06:56;;;;;;;0.85;0.70;;;25.80;99.90;;;;;;5097238;27;20348;-75
2021/07/05 10:09:34;;;;;;;1.27;0.80;;;25.70;99.90;;;;;;5096669;27;20244;-75
2021/07/05 10:12:19;;;;;;;0.98;0.88;;;25.70;99.90;;;;;;5091377;27;20250;-75
2021/07/05 10:14:58;;;;;;;0.70;0.70;;;25.80;99.90;;;;;;5094912;27;20657;-75
2021/07/05 10:17:27;;;;;;;1.05;0.88;;;26.10;99.90;;;;;;5097346;27;20217;-73
2021/07/05 10:19:54;;;;;;;0.70;0.70;;;26.40;99.90;;;;;;5098664;27;20220;-75
2021/07/05 10:22:21;;;;;;;0.80;0.80;;;26.70;99.90;;;;;;5092161;28;20224;-75
2021/07/05 10:24:52;;;;;;;0.70;0.70;;;27.00;99.90;;;;;;5097937;27;20769;-75
2021/07/05 10:27:19;;;;;;;1.00;0.70;;;27.00;99.90;;;;;;5093242;28;20252;-75
2021/07/05 10:29:48;;;;;;;0.75;0.75;;;26.90;99.90;;;;;;5096304;28;20220;-75
2021/07/05 10:32:16;;;;;;;0.70;0.70;;;26.80;99.90;;;;;;5097029;27;20700;-75
2021/07/05 10:34:44;;;;;;;0.65;0.65;;;26.80;99.90;;;;;;5099469;27;20710;-75
2021/07/05 10:37:16;;;;;;;1.92;0.52;;;26.80;99.90;;;;;;5097091;27;20224;-76
2021/07/05 10:39:47;;;;;;;0.98;0.70;;;26.70;99.90;;;;;;5096900;28;20719;-75
2021/07/05 10:42:37;;;;;;;2.13;0.50;;;26.80;99.90;;;;;;5099825;27;20229;-75
2021/07/05 10:45:08;;;;;;;0.60;0.60;;;26.90;99.90;;;;;;5099669;27;20209;-75
2021/07/05 10:47:52;;;;;;;0.60;0.60;;;27.10;99.90;;;;;;5096611;28;20212;-74
2021/07/05 10:50:38;;;;;;;0.60;0.60;;;27.20;99.90;;;;;;5100314;28;20259;-75
2021/07/05 10:53:06;;;;;;;0.80;0.80;;;27.30;99.90;;;;;;5092489;27;20220;-75
2021/07/05 10:55:37;;;;;;;0.77;0.43;;;27.30;99.90;;;;;;5096984;27;20225;-75
2021/07/05 10:58:20;;;;;;;0.70;0.70;;;27.50;99.90;;;;;;5096873;27;20232;-75
2021/07/05 11:00:49;;;;;;;1.05;0.55;;;27.50;99.90;;;;;;5096371;27;20224;-75
2021/07/05 11:03:47;;;;;;;2.17;0.60;;;27.80;99.90;;;;;;5100303;27;20579;-74
2021/07/05 11:06:42;;;;;;;0.90;0.75;;;27.80;99.90;;;;;;5095634;27;20285;-76
2021/07/05 11:09:10;;;;;;;0.60;0.60;;;27.40;99.90;;;;;;5093478;27;20333;-75
2021/07/05 11:11:48;;;;;;;0.50;0.50;;;27.20;99.90;;;;;;5095559;28;20213;-75
2021/07/05 11:14:22;;;;;;;0.40;0.40;;;27.30;99.90;;;;;;5097638;28;20301;-76
2021/07/05 11:17:22;;;;;;;0.50;0.50;;;27.50;99.90;;;;;;5098085;28;20547;-76
2021/07/05 11:19:49;;;;;;;0.40;0.40;;;28.00;99.90;;;;;;5095859;28;20208;-74
2021/07/05 11:22:22;;;;;;;0.70;0.60;;;28.20;99.90;;;;;;5097860;28;20228;-75
2021/07/05 11:24:52;;;;;;;0.50;0.50;;;28.30;99.90;;;;;;5093416;27;20224;-74
2021/07/05 11:27:27;;;;;;;0.40;0.40;;;28.50;99.90;;;;;;5092930;28;20223;-75
2021/07/05 11:30:11;;;;;;;0.70;0.70;;;28.60;99.90;;;;;;5096591;27;20236;-76
2021/07/05 11:32:39;;;;;;;0.50;0.50;;;28.60;99.90;;;;;;5092172;27;21417;-76
2021/07/05 11:35:39;;;;;;;0.60;0.60;;;28.50;99.90;;;;;;5096400;28;20683;-75
2021/07/05 11:38:10;;;;;;;0.63;0.50;;;28.60;99.90;;;;;;5092518;28;20235;-76
2021/07/05 11:40:47;;;;;;;0.40;0.40;;;28.60;99.90;;;;;;5096190;27;20231;-74
2021/07/05 11:43:16;;;;;;;0.50;0.50;;;28.60;99.90;;;;;;5094931;28;20921;-76
2021/07/05 11:45:45;;;;;;;0.65;0.30;;;28.90;99.90;;;;;;5099401;28;20783;-76
2021/07/05 11:48:54;;;;;;;0.32;0.32;;;29.10;99.90;;;;;;5095425;28;20303;-75
2021/07/05 11:51:25;;;;;;;1.38;0.40;;;29.20;99.90;;;;;;5097784;27;20219;-76
2021/07/05 11:53:54;;;;;;;0.40;0.40;;;29.40;99.90;;;;;;5096758;28;20228;-76
2021/07/05 11:56:34;;;;;;;0.30;0.30;;;29.20;99.90;;;;;;5096333;28;21389;-76
2021/07/05 11:59:02;;;;;;;0.40;0.40;;;29.10;99.90;;;;;;5093042;28;20228;-76
2021/07/05 12:01:31;;;;;;;0.95;0.30;;;29.20;99.90;;;;;;5096983;28;20229;-75
2021/07/05 12:04:00;;;;;;;0.88;0.50;;;29.30;99.90;;;;;;5097311;28;20258;-76
2021/07/05 12:06:30;;;;;;;0.30;0.30;;;29.30;99.90;;;;;;5098174;27;20216;-77
2021/07/05 12:08:59;;;;;;;0.40;0.40;;;29.10;99.90;;;;;;5092417;28;20221;-76
2021/07/05 12:11:36;;;;;;;0.40;0.40;;;28.90;99.90;;;;;;5099174;28;20229;-77
2021/07/05 12:14:18;;;;;;;0.60;0.60;;;28.70;99.90;;;;;;5095321;28;20225;-76
2021/07/05 12:16:48;;;;;;;0.40;0.30;;;28.60;99.90;;;;;;5098101;28;20224;-76
2021/07/05 12:19:15;;;;;;;0.50;0.50;;;28.50;99.90;;;;;;5097878;27;20220;-76
2021/07/05 12:21:47;;;;;;;0.55;0.40;;;28.40;99.90;;;;;;5094587;28;20217;-75
2021/07/05 12:24:19;;;;;;;0.57;0.40;;;28.40;99.90;;;;;;5112750;27;20232;-76
2021/07/05 12:26:49;;;;;;;1.45;0.50;;;28.40;99.90;;;;;;5109253;27;20236;-77
2021/07/05 12:29:20;;;;;;;0.32;0.32;;;28.30;99.90;;;;;;5110973;28;20223;-75
2021/07/05 12:32:07;;;;;;;0.88;0.50;;;28.40;99.90;;;;;;5108596;27;20216;-78
2021/07/05 12:34:56;;;;;;;2.42;0.50;;;28.20;99.90;;;;;;5108118;27;20221;-77
2021/07/05 12:37:33;;;;;;;0.45;0.45;;;28.10;99.90;;;;;;5096305;27;20220;-76
2021/07/05 12:40:17;;;;;;;0.43;0.43;;;28.00;99.90;;;;;;5095313;28;20216;-77
2021/07/05 12:42:46;;;;;;;0.40;0.40;;;27.80;99.90;;;;;;5095776;27;20224;-76
2021/07/05 12:45:16;;;;;;;0.50;0.50;;;27.70;99.90;;;;;;5093987;28;20227;-75
2021/07/05 12:48:11;;;;;;;0.35;0.35;;;27.50;99.90;;;;;;5092603;27;20233;-76
2021/07/05 12:50:41;;;;;;;1.00;0.90;;;27.90;99.90;;;;;;5094685;27;20307;-76
2021/07/05 12:53:21;;;;;;;0.43;0.40;;;28.10;99.90;;;;;;5109683;22;20770;-72
2021/07/05 12:56:01;;;;;;;0.50;0.50;;;28.30;99.90;;;;;;5072201;28;20225;-71
2021/07/05 12:58:43;;;;;;;0.55;0.50;;;28.50;99.90;;;;;;5046877;28;21544;-75
2021/07/05 13:01:13;;;;;;;0.45;0.45;;;28.90;99.90;;;;;;5062516;28;20225;-72
2021/07/05 13:03:54;;;;;;;0.40;0.40;;;29.00;99.90;;;;;;5068461;28;20221;-73
2021/07/05 13:06:21;;;;;;;0.30;0.30;;;28.80;99.90;;;;;;5069610;28;20266;-73
2021/07/05 13:08:55;;;;;;;0.50;0.50;;;28.80;99.90;;;;;;5061693;28;20225;-73
2021/07/05 13:11:23;;;;;;;0.95;0.35;;;28.60;96.30;;;;;;5061870;28;20232;-76